Time;durP1;ratioP1;P1;durP2;ratioP2;P2;SDS_P1;SDS_P2;PMS_P1;PMS_P2;Temp;Humidity;BMP_temperature;BMP_pressure;BME280_temperature;BME280_humidity;BME280_pressure;Samples;Min_cycle;Max_cycle;Signal;HPM_P1;HPM_P2
2023/08/19 00:02:19;;;;;;;;;;;22.50;73.70;;;;;;5050894;28;895;-67
2023/08/19 00:04:44;;;;;;;;;;;22.50;73.70;;;;;;5051707;28;1906;-67
2023/08/19 00:07:10;;;;;;;;;;;22.50;73.70;;;;;;5049942;28;1282;-67
2023/08/19 00:09:37;;;;;;;;;;;22.50;73.70;;;;;;5051866;28;891;-67
2023/08/19 00:12:02;;;;;;;;;;;22.50;73.70;;;;;;5051472;28;859;-67
2023/08/19 00:14:28;;;;;;;;;;;22.50;73.70;;;;;;5051085;28;866;-64
2023/08/19 00:16:53;;;;;;;;;;;22.50;73.70;;;;;;5050959;28;1282;-63
2023/08/19 00:19:19;;;;;;;;;;;22.50;73.70;;;;;;5050280;28;1287;-64
2023/08/19 00:21:44;;;;;;;;;;;22.50;73.70;;;;;;5050472;28;892;-64
2023/08/19 00:24:10;;;;;;;;;;;22.50;73.70;;;;;;5050521;28;1972;-64
2023/08/19 00:26:35;;;;;;;;;;;22.50;73.70;;;;;;5055950;28;1158;-65
2023/08/19 00:29:01;;;;;;;;;;;22.50;73.70;;;;;;5050273;28;1388;-64
2023/08/19 00:31:27;;;;;;;;;;;22.50;73.70;;;;;;5049966;28;1057;-64
2023/08/19 00:33:52;;;;;;;;;;;22.50;73.70;;;;;;5051015;28;926;-63
2023/08/19 00:36:18;;;;;;;;;;;22.50;73.70;;;;;;5051129;28;915;-64
2023/08/19 00:38:45;;;;;;;;;;;22.50;73.70;;;;;;5047352;28;1393;-64
2023/08/19 00:41:11;;;;;;;;;;;22.50;73.70;;;;;;5050213;28;1235;-65
2023/08/19 00:43:37;;;;;;;;;;;22.50;73.70;;;;;;5049667;28;1462;-65
2023/08/19 00:46:03;;;;;;;;;;;22.50;73.80;;;;;;5050194;28;1963;-65
2023/08/19 00:48:28;;;;;;;;;;;22.50;73.70;;;;;;5049666;28;1394;-64
2023/08/19 00:50:54;;;;;;;;;;;22.50;73.80;;;;;;5049077;28;1358;-63
2023/08/19 00:53:19;;;;;;;;;;;22.50;73.70;;;;;;5050564;28;883;-65
2023/08/19 00:55:45;;;;;;;;;;;22.50;73.80;;;;;;5042355;28;1049;-64
2023/08/19 00:58:11;;;;;;;;;;;22.50;73.80;;;;;;5043296;28;1248;-64
2023/08/19 01:00:36;;;;;;;;;;;22.50;73.70;;;;;;5050335;28;820;-66
2023/08/19 01:03:06;;;;;;;;;;;22.50;73.80;;;;;;5043348;28;840;-64
2023/08/19 01:05:36;;;;;;;;;;;22.50;73.80;;;;;;5048740;28;1929;-64
2023/08/19 01:08:01;;;;;;;;;;;22.50;73.80;;;;;;5043654;28;1489;-64
2023/08/19 01:10:38;;;;;;;;;;;22.50;73.80;;;;;;5041837;28;892;-66
2023/08/19 01:13:11;;;;;;;;;;;22.50;73.80;;;;;;5046955;28;828;-64
2023/08/19 01:15:39;;;;;;;;;;;22.50;73.80;;;;;;5043928;28;844;-64
2023/08/19 01:18:04;;;;;;;;;;;22.50;73.80;;;;;;5042595;28;1376;-65
2023/08/19 01:20:31;;;;;;;;;;;22.50;73.80;;;;;;5043853;28;928;-65
2023/08/19 01:23:03;;;;;;;;;;;22.50;73.80;;;;;;5049974;28;831;-65
2023/08/19 01:25:29;;;;;;;;;;;22.50;73.70;;;;;;5049789;28;1906;-65
2023/08/19 01:27:54;;;;;;;;;;;22.50;73.80;;;;;;5049427;28;1353;-65
2023/08/19 01:30:20;;;;;;;;;;;22.50;73.80;;;;;;5050018;28;896;-65
2023/08/19 01:32:45;;;;;;;;;;;22.50;73.80;;;;;;5049938;28;1051;-65
2023/08/19 01:35:14;;;;;;;;;;;22.50;73.80;;;;;;5051965;28;1021;-65
2023/08/19 01:37:40;;;;;;;;;;;22.50;73.70;;;;;;5053745;28;1267;-65
2023/08/19 01:40:08;;;;;;;;;;;22.50;73.80;;;;;;5045925;28;804;-65
2023/08/19 01:42:34;;;;;;;;;;;22.50;73.80;;;;;;5053404;28;1081;-64
2023/08/19 01:45:00;;;;;;;;;;;22.50;73.80;;;;;;5049144;28;1947;-64
2023/08/19 01:47:25;;;;;;;;;;;22.50;73.80;;;;;;5048802;28;1265;-64
2023/08/19 01:49:51;;;;;;;;;;;22.50;73.80;;;;;;5053820;28;888;-65
2023/08/19 01:52:17;;;;;;;;;;;22.50;73.80;;;;;;5054802;28;928;-65
2023/08/19 01:54:42;;;;;;;;;;;22.50;73.80;;;;;;5050283;28;856;-64
2023/08/19 01:57:07;;;;;;;;;;;22.50;73.80;;;;;;5054394;28;1250;-64
2023/08/19 01:59:33;;;;;;;;;;;22.50;73.80;;;;;;5052778;28;879;-66
2023/08/19 02:01:59;;;;;;;;;;;22.50;73.80;;;;;;5053536;28;903;-64
2023/08/19 02:04:24;;;;;;;;;;;22.50;73.80;;;;;;5053594;28;1906;-65
2023/08/19 02:06:50;;;;;;;;;;;22.50;73.80;;;;;;5047657;28;895;-65
2023/08/19 02:09:15;;;;;;;;;;;22.50;73.80;;;;;;5052039;28;1206;-64
2023/08/19 02:11:41;;;;;;;;;;;22.50;73.80;;;;;;5053367;28;935;-64
2023/08/19 02:14:07;;;;;;;;;;;22.50;73.80;;;;;;5053170;28;895;-65
2023/08/19 02:16:32;;;;;;;;;;;22.50;73.80;;;;;;5047330;28;911;-65
2023/08/19 02:18:58;;;;;;;;;;;22.50;73.80;;;;;;5052636;28;1347;-65
2023/08/19 02:21:24;;;;;;;;;;;22.50;74.60;;;;;;5052830;28;1033;-64
2023/08/19 02:23:49;;;;;;;;;;;22.50;73.80;;;;;;5053457;28;1174;-65
2023/08/19 02:26:15;;;;;;;;;;;22.50;73.80;;;;;;5052968;28;1902;-64
2023/08/19 02:28:40;;;;;;;;;;;22.50;73.80;;;;;;5052033;28;1331;-65
2023/08/19 02:31:05;;;;;;;;;;;22.50;73.80;;;;;;5053362;28;903;-64
2023/08/19 02:33:31;;;;;;;;;;;22.50;73.80;;;;;;5052926;28;804;-64
2023/08/19 02:35:56;;;;;;;;;;;22.50;73.80;;;;;;5052887;28;1353;-65
2023/08/19 02:38:22;;;;;;;;;;;22.50;73.80;;;;;;5052339;28;1353;-65
2023/08/19 02:40:50;;;;;;;;;;;22.50;73.80;;;;;;5052141;28;1208;-65
2023/08/19 02:43:16;;;;;;;;;;;22.50;73.80;;;;;;5053092;28;869;-64
2023/08/19 02:45:42;;;;;;;;;;;22.50;73.90;;;;;;5051882;28;1907;-65
2023/08/19 02:48:07;;;;;;;;;;;22.50;73.80;;;;;;5051622;28;1237;-65
2023/08/19 02:50:33;;;;;;;;;;;22.50;73.80;;;;;;5052752;28;1046;-65
2023/08/19 02:52:58;;;;;;;;;;;22.50;73.80;;;;;;5052691;28;934;-65
2023/08/19 02:55:24;;;;;;;;;;;22.50;73.80;;;;;;5047550;28;945;-65
2023/08/19 02:57:49;;;;;;;;;;;22.50;73.80;;;;;;5051613;28;1258;-66
2023/08/19 03:00:15;;;;;;;;;;;22.50;73.80;;;;;;5051876;28;868;-65
2023/08/19 03:02:41;;;;;;;;;;;22.50;73.80;;;;;;5052534;28;847;-65
2023/08/19 03:05:06;;;;;;;;;;;22.50;73.90;;;;;;5052319;28;1945;-65
2023/08/19 03:07:32;;;;;;;;;;;22.50;73.80;;;;;;5052264;28;1326;-64
2023/08/19 03:09:57;;;;;;;;;;;22.50;73.80;;;;;;5051494;28;993;-65
2023/08/19 03:12:23;;;;;;;;;;;22.50;73.90;;;;;;5052154;28;756;-65
2023/08/19 03:14:48;;;;;;;;;;;22.50;73.80;;;;;;5051740;28;870;-65
2023/08/19 03:17:14;;;;;;;;;;;22.50;73.80;;;;;;5052213;28;1229;-66
2023/08/19 03:19:39;;;;;;;;;;;22.50;73.90;;;;;;5051383;28;1309;-66
2023/08/19 03:22:05;;;;;;;;;;;22.50;73.80;;;;;;5052026;28;800;-64
2023/08/19 03:24:30;;;;;;;;;;;22.50;73.90;;;;;;5052232;28;1902;-65
2023/08/19 03:26:55;;;;;;;;;;;22.50;73.90;;;;;;5051926;28;1366;-64
2023/08/19 03:29:22;;;;;;;;;;;22.50;73.80;;;;;;5051439;28;1449;-64
2023/08/19 03:31:48;;;;;;;;;;;22.50;73.80;;;;;;5052395;28;754;-64
2023/08/19 03:34:13;;;;;;;;;;;22.50;73.80;;;;;;5051941;28;792;-64
2023/08/19 03:36:39;;;;;;;;;;;22.40;73.80;;;;;;5052232;28;923;-65
2023/08/19 03:39:04;;;;;;;;;;;22.50;73.80;;;;;;5051474;28;1205;-65
2023/08/19 03:41:30;;;;;;;;;;;22.50;73.90;;;;;;5052777;28;1025;-64
2023/08/19 03:43:55;;;;;;;;;;;22.50;73.90;;;;;;5050868;28;893;-64
2023/08/19 03:46:21;;;;;;;;;;;22.50;73.80;;;;;;5051814;28;1977;-64
2023/08/19 03:48:46;;;;;;;;;;;22.50;73.80;;;;;;5050449;28;1359;-64
2023/08/19 03:51:12;;;;;;;;;;;22.50;73.90;;;;;;5053294;28;874;-64
2023/08/19 03:53:37;;;;;;;;;;;22.40;73.80;;;;;;5051524;28;848;-64
2023/08/19 03:56:02;;;;;;;;;;;22.50;73.80;;;;;;5051548;28;930;-65
2023/08/19 03:58:28;;;;;;;;;;;22.50;73.90;;;;;;5050997;28;1752;-65
2023/08/19 04:00:53;;;;;;;;;;;22.50;73.90;;;;;;5051239;28;1278;-65
2023/08/19 04:03:19;;;;;;;;;;;22.50;73.90;;;;;;5051144;28;881;-65
2023/08/19 04:05:44;;;;;;;;;;;22.50;73.90;;;;;;5051136;28;1902;-65
2023/08/19 04:08:10;;;;;;;;;;;22.50;73.90;;;;;;5050262;28;1271;-65
2023/08/19 04:10:35;;;;;;;;;;;22.50;73.90;;;;;;5050965;28;1046;-65
2023/08/19 04:13:01;;;;;;;;;;;22.50;73.90;;;;;;5050915;28;886;-65
2023/08/19 04:15:28;;;;;;;;;;;22.50;73.80;;;;;;5052762;28;906;-64
2023/08/19 04:17:54;;;;;;;;;;;22.50;73.90;;;;;;5032502;28;1394;-64
2023/08/19 04:20:19;;;;;;;;;;;22.50;73.90;;;;;;5050647;28;1129;-64
2023/08/19 04:22:45;;;;;;;;;;;22.50;73.90;;;;;;5051027;28;1001;-64
2023/08/19 04:25:10;;;;;;;;;;;22.50;73.90;;;;;;5051146;28;1961;-65
2023/08/19 04:27:36;;;;;;;;;;;22.50;73.90;;;;;;5050626;28;1344;-65
2023/08/19 04:30:01;;;;;;;;;;;22.40;73.80;;;;;;5050271;28;840;-65
2023/08/19 04:32:28;;;;;;;;;;;22.50;73.90;;;;;;5050491;28;875;-65
2023/08/19 04:34:54;;;;;;;;;;;22.50;73.90;;;;;;5046630;28;1085;-65
2023/08/19 04:37:19;;;;;;;;;;;22.50;73.90;;;;;;5049079;28;1265;-64
2023/08/19 04:39:45;;;;;;;;;;;22.50;73.90;;;;;;5048377;28;902;-64
2023/08/19 04:42:10;;;;;;;;;;;22.50;74.00;;;;;;5049042;28;963;-64
2023/08/19 04:44:35;;;;;;;;;;;22.50;73.90;;;;;;5049013;28;1898;-65
2023/08/19 04:47:01;;;;;;;;;;;22.50;73.90;;;;;;5048756;28;1680;-65
2023/08/19 04:49:26;;;;;;;;;;;22.50;73.90;;;;;;5048482;28;934;-64
2023/08/19 04:51:52;;;;;;;;;;;22.50;73.90;;;;;;5040934;28;845;-65
2023/08/19 04:54:17;;;;;;;;;;;22.50;73.90;;;;;;5050725;28;943;-65
2023/08/19 04:56:43;;;;;;;;;;;22.50;73.90;;;;;;5050491;28;980;-65
2023/08/19 04:59:08;;;;;;;;;;;22.50;73.90;;;;;;5049550;28;1377;-65
2023/08/19 05:01:34;;;;;;;;;;;22.50;74.70;;;;;;5050213;28;1495;-65
2023/08/19 05:03:59;;;;;;;;;;;22.50;73.90;;;;;;5050279;28;863;-64
2023/08/19 05:06:25;;;;;;;;;;;22.50;73.90;;;;;;5050184;28;1961;-67
2023/08/19 05:08:50;;;;;;;;;;;22.50;73.90;;;;;;5042883;28;1704;-70
2023/08/19 05:11:16;;;;;;;;;;;22.50;73.90;;;;;;5045499;28;1821;-70
2023/08/19 05:13:42;;;;;;;;;;;22.40;73.80;;;;;;5049344;28;1358;-71
2023/08/19 05:16:08;;;;;;;;;;;22.50;73.90;;;;;;5049358;28;1455;-70
2023/08/19 05:18:33;;;;;;;;;;;22.50;74.00;;;;;;5048418;28;1375;-71
2023/08/19 05:20:59;;;;;;;;;;;22.50;74.00;;;;;;5049532;28;907;-71
2023/08/19 05:23:24;;;;;;;;;;;22.40;73.80;;;;;;5049938;28;875;-69
2023/08/19 05:25:50;;;;;;;;;;;22.50;73.90;;;;;;5049127;28;1910;-69
2023/08/19 05:28:15;;;;;;;;;;;22.50;73.90;;;;;;5049210;28;1330;-70
2023/08/19 05:30:40;;;;;;;;;;;22.40;73.90;;;;;;5041231;28;891;-68
2023/08/19 05:33:06;;;;;;;;;;;22.50;73.90;;;;;;5049199;28;860;-69
2023/08/19 05:35:31;;;;;;;;;;;22.50;74.00;;;;;;5042921;28;1451;-69
2023/08/19 05:37:57;;;;;;;;;;;22.50;73.90;;;;;;5048418;28;1286;-68
2023/08/19 05:40:22;;;;;;;;;;;22.40;73.80;;;;;;5049461;28;819;-68
2023/08/19 05:42:48;;;;;;;;;;;22.50;73.90;;;;;;5048795;28;955;-70
2023/08/19 05:45:14;;;;;;;;;;;22.40;73.90;;;;;;5048570;28;1953;-70
2023/08/19 05:47:39;;;;;;;;;;;22.50;73.90;;;;;;5048649;28;1340;-69
2023/08/19 05:50:06;;;;;;;;;;;22.50;73.90;;;;;;5047033;28;1377;-69
2023/08/19 05:52:31;;;;;;;;;;;22.40;73.90;;;;;;5044075;28;959;-69
2023/08/19 05:54:57;;;;;;;;;;;22.50;73.90;;;;;;5048851;28;1046;-69
2023/08/19 05:57:23;;;;;;;;;;;22.50;73.90;;;;;;5049220;28;1290;-70
2023/08/19 05:59:48;;;;;;;;;;;22.50;73.90;;;;;;5048598;28;881;-68
2023/08/19 06:02:14;;;;;;;;;;;22.50;73.90;;;;;;5049210;28;1073;-68
2023/08/19 06:04:39;;;;;;;;;;;22.50;73.90;;;;;;5049661;28;1910;-68
2023/08/19 06:07:05;;;;;;;;;;;22.50;73.90;;;;;;5049649;28;1273;-68
2023/08/19 06:09:30;;;;;;;;;;;22.50;74.40;;;;;;5048817;28;1325;-68
2023/08/19 06:11:56;;;;;;;;;;;22.50;74.60;;;;;;5049755;28;989;-68
2023/08/19 06:14:21;;;;;;;;;;;22.50;74.90;;;;;;5049290;28;793;-67
2023/08/19 06:16:47;;;;;;;;;;;22.50;75.10;;;;;;5044889;28;1566;-69
2023/08/19 06:19:12;;;;;;;;;;;22.50;75.10;;;;;;5042604;28;1315;-69
2023/08/19 06:21:38;;;;;;;;;;;22.50;75.10;;;;;;5035562;28;1486;-69
2023/08/19 06:24:03;;;;;;;;;;;22.50;75.10;;;;;;5052282;28;965;-70
2023/08/19 06:26:29;;;;;;;;;;;22.50;75.10;;;;;;5052164;28;1969;-69
2023/08/19 06:28:55;;;;;;;;;;;22.50;75.30;;;;;;5052079;28;1317;-70
2023/08/19 06:31:20;;;;;;;;;;;22.60;75.40;;;;;;5052172;28;958;-70
2023/08/19 06:33:46;;;;;;;;;;;22.60;75.50;;;;;;5051964;28;953;-69
2023/08/19 06:36:11;;;;;;;;;;;22.50;75.40;;;;;;5044476;28;926;-66
2023/08/19 06:38:39;;;;;;;;;;;22.50;75.20;;;;;;5051320;28;1244;-66
2023/08/19 06:41:06;;;;;;;;;;;22.60;75.30;;;;;;5045537;28;1018;-66
2023/08/19 06:43:32;;;;;;;;;;;22.60;75.40;;;;;;5045309;28;871;-67
2023/08/19 06:45:57;;;;;;;;;;;22.60;75.50;;;;;;5047918;28;1991;-66
2023/08/19 06:48:23;;;;;;;;;;;22.60;75.30;;;;;;5051150;28;1536;-66
2023/08/19 06:50:49;;;;;;;;;;;22.60;75.30;;;;;;5051633;28;963;-67
2023/08/19 06:53:15;;;;;;;;;;;22.60;75.40;;;;;;5051967;28;1030;-66
2023/08/19 06:55:41;;;;;;;;;;;22.60;75.40;;;;;;5051430;28;1274;-69
2023/08/19 06:58:11;;;;;;;;;;;22.60;75.30;;;;;;5050656;28;2210;-66
2023/08/19 07:00:37;;;;;;;;;;;22.60;75.30;;;;;;5033972;28;1938;-67
2023/08/19 07:03:02;;;;;;;;;;;22.60;75.30;;;;;;5046003;28;1347;-68
2023/08/19 07:05:28;;;;;;;;;;;22.60;75.30;;;;;;5044660;28;1972;-68
2023/08/19 07:07:54;;;;;;;;;;;22.60;75.20;;;;;;5033642;28;1351;-67
2023/08/19 07:10:20;;;;;;;;;;;22.60;75.70;;;;;;5043785;28;942;-68
2023/08/19 07:12:46;;;;;;;;;;;22.60;75.60;;;;;;5049914;28;943;-67
2023/08/19 07:15:12;;;;;;;;;;;22.60;75.70;;;;;;5052124;28;860;-67
2023/08/19 07:17:44;;;;;;;;;;;22.60;75.90;;;;;;5051849;28;1321;-67
2023/08/19 07:20:14;;;;;;;;;;;22.70;76.40;;;;;;5045051;28;1384;-67
2023/08/19 07:22:39;;;;;;;;;;;22.70;76.40;;;;;;5047605;28;1129;-68
2023/08/19 07:25:05;;;;;;;;;;;22.70;77.50;;;;;;5052109;28;1954;-67
2023/08/19 07:27:31;;;;;;;;;;;22.70;77.80;;;;;;5044573;28;1686;-68
2023/08/19 07:29:56;;;;;;;;;;;22.70;77.90;;;;;;5051746;28;950;-68
2023/08/19 07:32:22;;;;;;;;;;;22.70;78.00;;;;;;5048928;28;1014;-68
2023/08/19 07:34:47;;;;;;;;;;;22.70;78.00;;;;;;5044353;28;820;-68
2023/08/19 07:37:13;;;;;;;;;;;22.70;78.20;;;;;;5052863;28;1253;-68
2023/08/19 07:39:38;;;;;;;;;;;22.80;78.20;;;;;;5052624;28;1072;-68
2023/08/19 07:42:04;;;;;;;;;;;22.80;78.30;;;;;;5052503;28;820;-68
2023/08/19 07:44:29;;;;;;;;;;;22.80;78.20;;;;;;5052643;28;1958;-68
2023/08/19 07:46:55;;;;;;;;;;;22.80;78.50;;;;;;5052383;28;911;-68
2023/08/19 07:49:20;;;;;;;;;;;22.80;78.60;;;;;;5050457;28;1288;-68
2023/08/19 07:51:46;;;;;;;;;;;22.80;78.70;;;;;;5051079;28;2031;-68
2023/08/19 07:54:11;;;;;;;;;;;22.80;78.60;;;;;;5052257;28;1446;-68
2023/08/19 07:56:37;;;;;;;;;;;22.80;78.60;;;;;;5052221;28;1025;-68
2023/08/19 07:59:03;;;;;;;;;;;22.80;78.80;;;;;;5051232;28;1277;-68
2023/08/19 08:01:29;;;;;;;;;;;22.80;79.90;;;;;;5047358;28;855;-68
2023/08/19 08:03:54;;;;;;;;;;;22.90;79.90;;;;;;5055343;28;1470;-68
2023/08/19 08:06:20;;;;;;;;;;;22.90;79.40;;;;;;5044087;28;1906;-68
2023/08/19 08:08:45;;;;;;;;;;;22.90;79.40;;;;;;5051336;28;1267;-68
2023/08/19 08:11:10;;;;;;;;;;;22.90;79.00;;;;;;5051326;28;1010;-69
2023/08/19 08:13:36;;;;;;;;;;;22.90;79.10;;;;;;5050881;28;818;-68
2023/08/19 08:16:02;;;;;;;;;;;22.90;79.00;;;;;;5051016;28;938;-69
2023/08/19 08:18:28;;;;;;;;;;;23.00;80.00;;;;;;5050039;28;1282;-69
2023/08/19 08:20:53;;;;;;;;;;;23.00;80.00;;;;;;5042937;28;1065;-69
2023/08/19 08:23:19;;;;;;;;;;;23.00;79.70;;;;;;5050870;28;1386;-69
2023/08/19 08:25:45;;;;;;;;;;;23.00;79.70;;;;;;5047194;28;1914;-69
2023/08/19 08:28:11;;;;;;;;;;;23.00;79.70;;;;;;5049692;28;1413;-69
2023/08/19 08:30:36;;;;;;;;;;;23.00;80.50;;;;;;5050497;28;818;-70
2023/08/19 08:33:01;;;;;;;;;;;23.00;79.30;;;;;;5050546;28;891;-68
2023/08/19 08:35:27;;;;;;;;;;;23.00;77.70;;;;;;5041090;28;1674;-68
2023/08/19 08:37:52;;;;;;;;;;;23.00;76.60;;;;;;5049385;28;1263;-68
2023/08/19 08:40:18;;;;;;;;;;;23.00;76.40;;;;;;5049257;28;922;-68
2023/08/19 08:42:43;;;;;;;;;;;22.90;76.00;;;;;;5049867;28;1073;-68
2023/08/19 08:45:09;;;;;;;;;;;22.90;75.80;;;;;;5049600;28;1906;-68
2023/08/19 08:47:34;;;;;;;;;;;22.90;75.70;;;;;;5049702;28;1344;-68
2023/08/19 08:50:00;;;;;;;;;;;22.90;75.70;;;;;;5049165;28;907;-69
2023/08/19 08:52:25;;;;;;;;;;;22.90;75.60;;;;;;5045928;28;920;-68
2023/08/19 08:54:54;;;;;;;;;;;22.80;75.60;;;;;;5044682;28;878;-67
2023/08/19 08:57:19;;;;;;;;;;;22.80;75.70;;;;;;5049007;28;1639;-67
2023/08/19 08:59:45;;;;;;;;;;;22.80;75.60;;;;;;5049706;28;859;-66
2023/08/19 09:02:11;;;;;;;;;;;22.80;75.60;;;;;;5046461;28;832;-67
2023/08/19 09:04:37;;;;;;;;;;;22.80;75.50;;;;;;5048647;28;1914;-68
2023/08/19 09:07:22;;;;;;;;;;;22.80;75.40;;;;;;5049223;28;1365;-67
2023/08/19 09:09:48;;;;;;;;;;;22.80;75.40;;;;;;5047573;28;1178;-68
2023/08/19 09:12:13;;;;;;;;;;;22.80;75.40;;;;;;5042882;28;848;-67
2023/08/19 09:14:45;;;;;;;;;;;22.70;75.30;;;;;;5049453;28;818;-69
2023/08/19 09:17:12;;;;;;;;;;;22.70;75.30;;;;;;5041238;28;1265;-69
2023/08/19 09:19:37;;;;;;;;;;;22.70;75.30;;;;;;5048484;28;1285;-69
2023/08/19 09:22:10;;;;;;;;;;;22.70;75.30;;;;;;5048944;28;828;-69
2023/08/19 09:24:35;;;;;;;;;;;22.70;75.30;;;;;;5048961;28;1910;-69
2023/08/19 09:27:00;;;;;;;;;;;22.70;75.30;;;;;;5048020;28;1347;-69
2023/08/19 09:29:26;;;;;;;;;;;22.70;75.30;;;;;;5041965;28;1180;-69
2023/08/19 09:31:52;;;;;;;;;;;22.70;75.40;;;;;;5049144;28;1372;-68
2023/08/19 09:34:18;;;;;;;;;;;22.70;75.40;;;;;;5041766;28;1007;-69
2023/08/19 09:36:44;;;;;;;;;;;22.70;75.60;;;;;;5048961;28;856;-69
2023/08/19 09:39:09;;;;;;;;;;;22.70;75.50;;;;;;5048567;28;1218;-69
2023/08/19 09:41:35;;;;;;;;;;;22.70;75.60;;;;;;5049820;28;971;-69
2023/08/19 09:44:00;;;;;;;;;;;22.70;75.60;;;;;;5048266;28;1394;-69
2023/08/19 09:46:30;;;;;;;;;;;22.70;75.50;;;;;;5049527;28;1951;-69
2023/08/19 09:48:56;;;;;;;;;;;22.70;75.50;;;;;;5043543;28;1259;-69
2023/08/19 09:51:25;;;;;;;;;;;22.70;75.60;;;;;;5049437;28;919;-70
2023/08/19 09:53:51;;;;;;;;;;;22.70;75.50;;;;;;5049555;28;1500;-69
2023/08/19 09:56:20;;;;;;;;;;;22.70;75.60;;;;;;5051155;28;898;-69
2023/08/19 09:58:46;;;;;;;;;;;22.70;75.60;;;;;;5047261;28;1266;-70
2023/08/19 10:01:12;;;;;;;;;;;22.70;75.60;;;;;;5053389;28;863;-70
2023/08/19 10:03:37;;;;;;;;;;;22.70;75.50;;;;;;5052324;28;902;-70
2023/08/19 10:06:03;;;;;;;;;;;22.70;75.50;;;;;;5048659;28;1953;-68
2023/08/19 10:08:29;;;;;;;;;;;22.60;75.40;;;;;;5052879;28;1224;-70
2023/08/19 10:10:54;;;;;;;;;;;22.60;75.40;;;;;;5052917;28;875;-69
2023/08/19 10:13:20;;;;;;;;;;;22.70;75.50;;;;;;5053177;28;930;-70
2023/08/19 10:15:46;;;;;;;;;;;22.70;75.40;;;;;;5053771;28;860;-70
2023/08/19 10:18:14;;;;;;;;;;;22.60;75.30;;;;;;5039847;28;1480;-69
2023/08/19 10:20:40;;;;;;;;;;;22.70;75.40;;;;;;5046763;28;1325;-70
2023/08/19 10:23:05;;;;;;;;;;;22.60;75.20;;;;;;5034394;28;1609;-69
2023/08/19 10:25:31;;;;;;;;;;;22.60;75.20;;;;;;5042779;28;1902;-69
2023/08/19 10:28:12;;;;;;;;;;;22.60;75.20;;;;;;5049367;28;1319;-69
2023/08/19 10:30:38;;;;;;;;;;;22.70;75.30;;;;;;5044388;28;849;-71
2023/08/19 10:33:05;;;;;;;;;;;22.60;75.20;;;;;;5052198;28;1170;-67
2023/08/19 10:35:49;;;;;;;;;;;22.60;75.20;;;;;;5046014;28;833;-66
2023/08/19 10:38:15;;;;;;;;;;;22.70;75.20;;;;;;5051132;28;1256;-67
2023/08/19 10:40:40;;;;;;;;;;;22.60;75.20;;;;;;5052744;28;926;-67
2023/08/19 10:43:06;;;;;;;;;;;22.60;75.20;;;;;;5052749;28;1348;-68
2023/08/19 10:45:34;;;;;;;;;;;22.60;75.20;;;;;;5047296;28;1902;-67
2023/08/19 10:48:00;;;;;;;;;;;22.60;75.20;;;;;;5030598;28;2089;-69
2023/08/19 10:50:25;;;;;;;;;;;22.60;75.20;;;;;;5038395;28;1569;-69
2023/08/19 10:52:57;;;;;;;;;;;22.60;75.30;;;;;;5049716;28;1242;-70
2023/08/19 10:55:23;;;;;;;;;;;22.60;75.20;;;;;;5051219;28;1294;-69
2023/08/19 10:57:48;;;;;;;;;;;22.60;75.20;;;;;;5051061;28;1374;-69
2023/08/19 11:00:14;;;;;;;;;;;22.60;75.10;;;;;;5043457;28;855;-69
2023/08/19 11:02:40;;;;;;;;;;;22.60;75.10;;;;;;5050643;28;1379;-69
2023/08/19 11:05:06;;;;;;;;;;;22.60;75.20;;;;;;5044272;28;1969;-69
2023/08/19 11:07:33;;;;;;;;;;;22.60;75.10;;;;;;5049246;28;1283;-69
2023/08/19 11:09:58;;;;;;;;;;;22.60;75.20;;;;;;5050691;28;918;-69
2023/08/19 11:12:26;;;;;;;;;;;22.60;75.10;;;;;;5051504;28;863;-68
2023/08/19 11:14:52;;;;;;;;;;;22.60;75.10;;;;;;5046990;28;873;-69
2023/08/19 11:17:18;;;;;;;;;;;22.60;75.10;;;;;;5042640;28;1314;-69
2023/08/19 11:19:44;;;;;;;;;;;22.60;75.10;;;;;;5046132;28;1299;-69
2023/08/19 11:22:13;;;;;;;;;;;22.60;75.10;;;;;;5046009;28;1840;-69
2023/08/19 11:24:40;;;;;;;;;;;22.60;75.10;;;;;;5043505;28;2190;-69
2023/08/19 11:27:05;;;;;;;;;;;22.60;75.10;;;;;;5049718;28;1920;-68
2023/08/19 11:29:31;;;;;;;;;;;22.60;75.10;;;;;;5050958;28;1231;-68
2023/08/19 11:31:57;;;;;;;;;;;22.60;75.10;;;;;;5051657;28;1495;-68
2023/08/19 11:34:23;;;;;;;;;;;22.60;75.10;;;;;;5051879;28;829;-68
2023/08/19 11:36:49;;;;;;;;;;;22.60;75.20;;;;;;5038588;28;1203;-70
2023/08/19 11:39:15;;;;;;;;;;;22.60;75.10;;;;;;5050718;28;1271;-67
2023/08/19 11:41:40;;;;;;;;;;;22.60;75.10;;;;;;5051263;28;883;-67
2023/08/19 11:44:06;;;;;;;;;;;22.60;75.10;;;;;;5051594;28;821;-67
2023/08/19 11:46:32;;;;;;;;;;;22.60;75.10;;;;;;5051662;28;1902;-67
2023/08/19 11:48:58;;;;;;;;;;;22.60;75.10;;;;;;5050998;28;1409;-67
2023/08/19 11:51:27;;;;;;;;;;;22.60;75.10;;;;;;5051509;28;902;-68
2023/08/19 11:54:02;;;;;;;;;;;22.60;75.10;;;;;;5051106;28;895;-67
2023/08/19 11:56:28;;;;;;;;;;;22.60;75.20;;;;;;5051146;28;851;-68
2023/08/19 11:58:54;;;;;;;;;;;22.60;75.10;;;;;;5040634;28;1220;-67
2023/08/19 12:01:20;;;;;;;;;;;22.60;75.20;;;;;;5051157;28;879;-68
2023/08/19 12:03:46;;;;;;;;;;;22.60;75.20;;;;;;5050434;28;1968;-68
2023/08/19 12:06:12;;;;;;;;;;;22.60;75.10;;;;;;5044059;28;1910;-68
2023/08/19 12:08:41;;;;;;;;;;;22.60;75.10;;;;;;5049568;28;1316;-68
2023/08/19 12:11:07;;;;;;;;;;;22.60;75.10;;;;;;5044821;28;1302;-68
2023/08/19 12:13:32;;;;;;;;;;;22.60;75.10;;;;;;5050679;28;1288;-68
2023/08/19 12:15:58;;;;;;;;;;;22.60;75.10;;;;;;5051313;28;1447;-68
2023/08/19 12:18:23;;;;;;;;;;;22.60;75.10;;;;;;5049861;28;1293;-68
2023/08/19 12:20:49;;;;;;;;;;;22.60;75.10;;;;;;5044328;28;1381;-68
2023/08/19 12:23:14;;;;;;;;;;;22.60;75.10;;;;;;5043058;28;853;-68
2023/08/19 12:25:49;;;;;;;;;;;22.60;75.10;;;;;;5050705;28;1942;-68
2023/08/19 12:28:15;;;;;;;;;;;22.60;75.10;;;;;;5049488;28;1335;-68
2023/08/19 12:30:41;;;;;;;;;;;22.60;75.10;;;;;;5050126;28;851;-68
2023/08/19 12:33:06;;;;;;;;;;;22.60;75.00;;;;;;5042155;28;1167;-68
2023/08/19 12:35:32;;;;;;;;;;;22.60;75.00;;;;;;5049479;28;1366;-68
2023/08/19 12:37:57;;;;;;;;;;;22.60;75.00;;;;;;5044987;28;1262;-68
2023/08/19 12:40:22;;;;;;;;;;;22.60;75.00;;;;;;5050580;28;903;-68
2023/08/19 12:42:48;;;;;;;;;;;22.60;75.00;;;;;;5050375;28;979;-67
2023/08/19 12:45:14;;;;;;;;;;;22.60;75.00;;;;;;5050676;28;1898;-68
2023/08/19 12:47:40;;;;;;;;;;;22.60;75.00;;;;;;5043065;28;1354;-67
2023/08/19 12:50:06;;;;;;;;;;;22.60;75.00;;;;;;5049328;28;910;-68
2023/08/19 12:52:34;;;;;;;;;;;22.60;74.90;;;;;;5064600;28;872;-68
2023/08/19 12:55:00;;;;;;;;;;;22.60;74.90;;;;;;5050494;28;879;-67
2023/08/19 12:57:25;;;;;;;;;;;22.60;74.90;;;;;;5031168;28;1420;-68
2023/08/19 12:59:51;;;;;;;;;;;22.60;74.90;;;;;;5049511;28;1274;-68
2023/08/19 13:02:16;;;;;;;;;;;22.60;74.90;;;;;;5049624;28;1255;-68
2023/08/19 13:04:41;;;;;;;;;;;22.60;74.90;;;;;;5049290;28;2091;-68
2023/08/19 13:07:07;;;;;;;;;;;22.60;75.00;;;;;;5049925;28;1446;-69
2023/08/19 13:09:32;;;;;;;;;;;22.60;74.90;;;;;;5043447;28;1323;-67
2023/08/19 13:11:58;;;;;;;;;;;22.60;74.90;;;;;;5044292;28;879;-68
2023/08/19 13:14:23;;;;;;;;;;;22.60;74.90;;;;;;5048959;28;1085;-69
2023/08/19 13:16:49;;;;;;;;;;;22.60;74.90;;;;;;5049254;28;966;-69
2023/08/19 13:19:14;;;;;;;;;;;22.60;74.90;;;;;;5046451;28;1527;-69
2023/08/19 13:21:40;;;;;;;;;;;22.60;75.00;;;;;;5049073;28;887;-69
2023/08/19 13:24:05;;;;;;;;;;;22.60;75.00;;;;;;5048820;28;1022;-69
2023/08/19 13:26:31;;;;;;;;;;;22.60;75.00;;;;;;5048767;28;1910;-69
2023/08/19 13:28:56;;;;;;;;;;;22.60;75.00;;;;;;5047826;28;1332;-69
2023/08/19 13:31:22;;;;;;;;;;;22.60;74.90;;;;;;5048318;28;843;-68
2023/08/19 13:33:48;;;;;;;;;;;22.60;75.20;;;;;;5049011;28;967;-69
2023/08/19 13:36:13;;;;;;;;;;;22.60;75.00;;;;;;5035382;28;1084;-69
2023/08/19 13:38:39;;;;;;;;;;;22.60;75.00;;;;;;5047905;28;1323;-69
2023/08/19 13:41:04;;;;;;;;;;;22.60;75.00;;;;;;5048672;28;898;-69
2023/08/19 13:43:30;;;;;;;;;;;22.60;75.00;;;;;;5049163;28;836;-69
2023/08/19 13:45:55;;;;;;;;;;;22.60;74.90;;;;;;5042918;28;1882;-69
2023/08/19 13:48:21;;;;;;;;;;;22.60;74.90;;;;;;5048267;28;1264;-68
2023/08/19 13:50:46;;;;;;;;;;;22.60;74.90;;;;;;5048703;28;868;-69
2023/08/19 13:53:12;;;;;;;;;;;22.60;74.90;;;;;;5041492;28;820;-68
2023/08/19 13:55:37;;;;;;;;;;;22.60;74.90;;;;;;5048264;28;872;-69
2023/08/19 13:58:03;;;;;;;;;;;22.60;74.90;;;;;;5036488;28;1425;-69
2023/08/19 14:00:29;;;;;;;;;;;22.60;74.90;;;;;;5041273;28;1531;-69
2023/08/19 14:02:55;;;;;;;;;;;22.60;74.90;;;;;;5048171;28;895;-68
2023/08/19 14:05:21;;;;;;;;;;;22.60;74.90;;;;;;5048386;28;1906;-69
2023/08/19 14:07:47;;;;;;;;;;;22.60;74.90;;;;;;5046569;28;1293;-69
2023/08/19 14:10:13;;;;;;;;;;;22.60;74.90;;;;;;5042740;28;1596;-69
2023/08/19 14:12:38;;;;;;;;;;;22.60;74.80;;;;;;5038777;28;851;-66
2023/08/19 14:15:04;;;;;;;;;;;22.60;74.90;;;;;;5047565;28;884;-65
2023/08/19 14:17:30;;;;;;;;;;;22.60;74.90;;;;;;5047744;28;1353;-65
2023/08/19 14:19:55;;;;;;;;;;;22.60;74.90;;;;;;5043182;28;1250;-65
2023/08/19 14:22:21;;;;;;;;;;;22.60;74.90;;;;;;5047481;28;805;-65
2023/08/19 14:24:46;;;;;;;;;;;22.60;74.90;;;;;;5047200;28;1957;-65
2023/08/19 14:27:12;;;;;;;;;;;22.60;74.90;;;;;;5046241;28;1326;-65
2023/08/19 14:29:37;;;;;;;;;;;22.60;74.90;;;;;;5047968;28;862;-66